Time;durP1;ratioP1;P1;durP2;ratioP2;P2;SDS_P1;SDS_P2;PMS_P1;PMS_P2;Temp;Humidity;BMP_temperature;BMP_pressure;BME280_temperature;BME280_humidity;BME280_pressure;Samples;Min_cycle;Max_cycle;Signal;HPM_P1;HPM_P2
2021/06/01 00:00:13;;;;;;;0.30;0.30;;;17.90;61.80;;;;;;5089338;28;20017;-91
2021/06/01 00:02:43;;;;;;;0.10;0.10;;;18.00;62.30;;;;;;5089382;28;20028;-91
2021/06/01 00:05:09;;;;;;;0.10;0.10;;;18.00;62.10;;;;;;5089197;28;20024;-92
2021/06/01 00:07:36;;;;;;;0.20;0.20;;;17.80;62.70;;;;;;5090288;28;20031;-92
2021/06/01 00:10:06;;;;;;;0.30;0.30;;;17.70;62.60;;;;;;5089548;28;20269;-93
2021/06/01 00:12:32;;;;;;;0.10;0.10;;;17.90;63.00;;;;;;5089416;28;20032;-91
2021/06/01 00:14:58;;;;;;;0.10;0.10;;;17.70;63.60;;;;;;5088891;28;20024;-92
2021/06/01 00:17:24;;;;;;;0.00;0.00;;;17.70;76.60;;;;;;5089139;28;20032;-92
2021/06/01 00:19:49;;;;;;;0.10;0.10;;;17.40;63.70;;;;;;5089187;28;20380;-91
2021/06/01 00:22:15;;;;;;;0.27;0.20;;;17.40;64.30;;;;;;5088996;28;20078;-92
2021/06/01 00:24:41;;;;;;;0.20;0.20;;;17.30;64.20;;;;;;5088563;28;20046;-93
2021/06/01 00:27:07;;;;;;;0.00;0.00;;;17.30;64.50;;;;;;5089063;28;20020;-93
2021/06/01 00:29:37;;;;;;;0.52;0.13;;;17.40;64.80;;;;;;5089092;28;20020;-92
2021/06/01 00:32:08;;;;;;;0.30;0.30;;;17.20;65.50;;;;;;5088956;28;20038;-92
2021/06/01 00:34:34;;;;;;;0.00;0.00;;;17.10;66.40;;;;;;5088804;28;20024;-92
2021/06/01 00:37:00;;;;;;;1.93;0.33;;;17.30;65.70;;;;;;5088804;28;20028;-92
2021/06/01 00:39:26;;;;;;;0.13;0.13;;;17.30;65.90;;;;;;5088923;28;20558;-92
2021/06/01 00:41:52;;;;;;;0.07;0.07;;;17.40;65.50;;;;;;5088752;28;20119;-91
2021/06/01 00:44:17;;;;;;;0.93;0.93;;;17.30;65.40;;;;;;5088609;28;20036;-91
2021/06/01 00:46:43;;;;;;;1.23;1.13;;;17.30;65.90;;;;;;5083827;28;20056;-92
2021/06/01 00:49:09;;;;;;;0.40;0.40;;;17.40;66.20;;;;;;5068348;28;20047;-92
2021/06/01 00:51:35;;;;;;;0.10;0.10;;;17.40;65.80;;;;;;5068358;28;20112;-91
2021/06/01 00:54:02;;;;;;;0.10;0.10;;;17.50;66.10;;;;;;5069578;28;20098;-90
2021/06/01 00:56:31;;;;;;;0.10;0.10;;;17.40;66.40;;;;;;5074558;28;20461;-93
2021/06/01 00:58:57;;;;;;;0.10;0.10;;;17.40;66.10;;;;;;5075147;28;20035;-93
2021/06/01 01:01:26;;;;;;;0.10;0.10;;;17.50;66.20;;;;;;5076643;28;20032;-93
2021/06/01 01:03:59;;;;;;;0.82;0.70;;;17.10;66.80;;;;;;5075141;28;20032;-93
2021/06/01 01:06:35;;;;;;;0.50;0.50;;;17.30;67.20;;;;;;5073706;28;20496;-94
2021/06/01 01:09:09;;;;;;;0.20;0.20;;;17.30;67.10;;;;;;5075088;28;20020;-93
2021/06/01 01:11:35;;;;;;;0.38;0.38;;;17.20;67.90;;;;;;5075093;28;20105;-93
2021/06/01 01:14:30;;;;;;;0.10;0.10;;;17.00;68.40;;;;;;5075265;28;20436;-94
2021/06/01 01:17:17;;;;;;;0.60;0.40;;;17.00;68.60;;;;;;5074886;28;20029;-92
2021/06/01 01:19:50;;;;;;;0.10;0.10;;;16.80;69.80;;;;;;5074245;28;20060;-91
2021/06/01 01:22:17;;;;;;;2.00;0.80;;;16.60;84.30;;;;;;5074172;28;20378;-91
2021/06/01 01:25:04;;;;;;;0.30;0.20;;;16.50;74.40;;;;;;5075465;28;20035;-91
2021/06/01 01:27:49;;;;;;;0.10;0.10;;;16.40;72.20;;;;;;5071244;28;20009;-91
2021/06/01 01:30:21;;;;;;;4.23;0.73;;;16.40;73.20;;;;;;5054169;28;20546;-92
2021/06/01 01:33:11;;;;;;;0.10;0.10;;;16.40;72.40;;;;;;5053569;28;20052;-92
2021/06/01 01:35:39;;;;;;;0.30;0.20;;;16.40;72.50;;;;;;5054414;28;20027;-92
2021/06/01 01:38:06;;;;;;;0.00;0.00;;;16.50;73.00;;;;;;5054513;28;20556;-92
2021/06/01 01:40:36;;;;;;;1.08;0.38;;;16.60;72.10;;;;;;5054468;28;20024;-93
2021/06/01 01:43:05;;;;;;;0.10;0.10;;;16.60;72.60;;;;;;5053970;28;20028;-91
2021/06/01 01:45:36;;;;;;;2.35;0.30;;;16.60;72.60;;;;;;5053141;28;20028;-91
2021/06/01 01:51:11;;;;;;;0.20;0.20;;;16.90;72.60;;;;;;5054165;28;20082;-92
2021/06/01 01:53:40;;;;;;;0.10;0.10;;;16.70;72.20;;;;;;5056135;28;20044;-90
2021/06/01 01:56:06;;;;;;;0.20;0.20;;;16.70;71.80;;;;;;5065991;28;20497;-90
2021/06/01 01:58:33;;;;;;;0.03;0.03;;;16.90;71.70;;;;;;5053319;28;20029;-90
2021/06/01 02:01:01;;;;;;;;;;;16.60;72.90;;;;;;5068323;28;20044;-92
2021/06/01 02:03:39;;;;;;;0.10;0.10;;;16.50;72.90;;;;;;5074148;28;19915;-92
2021/06/01 02:06:05;;;;;;;0.20;0.20;;;16.50;73.20;;;;;;5072019;28;20485;-91
2021/06/01 02:08:31;;;;;;;0.10;0.10;;;16.60;72.70;;;;;;5074007;28;20051;-91
2021/06/01 02:10:57;;;;;;;0.20;0.20;;;16.70;71.70;;;;;;5072201;28;20058;-91
2021/06/01 02:13:27;;;;;;;0.10;0.10;;;16.80;72.20;;;;;;5054866;28;20094;-92
2021/06/01 02:15:53;;;;;;;0.10;0.10;;;16.70;72.00;;;;;;5052940;28;20048;-91
2021/06/01 02:18:19;;;;;;;0.10;0.10;;;16.90;72.50;;;;;;5060782;28;20035;-92
2021/06/01 02:20:47;;;;;;;0.10;0.10;;;16.80;72.30;;;;;;5062945;28;20123;-91
2021/06/01 02:26:04;;;;;;;0.10;0.10;;;16.90;72.10;;;;;;5062761;28;20038;-92
2021/06/01 02:28:42;;;;;;;0.80;0.80;;;16.80;72.20;;;;;;5072261;28;20158;-92
2021/06/01 02:31:30;;;;;;;0.20;0.20;;;16.70;72.70;;;;;;5059614;28;20021;-92
2021/06/01 02:34:02;;;;;;;0.10;0.10;;;16.60;73.80;;;;;;5052710;28;20106;-91
2021/06/01 02:36:29;;;;;;;0.85;0.52;;;16.70;73.40;;;;;;5052413;28;20032;-91
2021/06/01 02:38:58;;;;;;;0.20;0.20;;;16.70;73.90;;;;;;5052526;28;20083;-91
2021/06/01 02:41:24;;;;;;;0.43;0.43;;;16.80;73.20;;;;;;5052648;28;20044;-92
2021/06/01 02:43:51;;;;;;;0.10;0.10;;;16.70;73.30;;;;;;5052521;28;20055;-92
2021/06/01 02:46:18;;;;;;;0.10;0.10;;;16.60;73.80;;;;;;5052696;28;20032;-92
2021/06/01 02:48:44;;;;;;;;;;;16.50;74.20;;;;;;5053479;28;20025;-92
2021/06/01 02:51:14;;;;;;;0.17;0.17;;;16.50;74.20;;;;;;5052927;28;20259;-92
2021/06/01 02:53:54;;;;;;;0.32;0.32;;;16.50;74.40;;;;;;5052485;28;20099;-91
2021/06/01 02:56:21;;;;;;;0.20;0.20;;;16.80;73.60;;;;;;5052655;28;20032;-93
2021/06/01 02:58:48;;;;;;;0.03;0.03;;;16.60;74.60;;;;;;5052600;28;20052;-91
2021/06/01 03:01:15;;;;;;;0.08;0.08;;;16.80;73.30;;;;;;5052436;28;20083;-91
2021/06/01 03:03:46;;;;;;;0.30;0.30;;;16.80;73.50;;;;;;5052175;28;20116;-92
2021/06/01 03:06:12;;;;;;;0.10;0.10;;;16.70;74.10;;;;;;5052590;28;20025;-92
2021/06/01 03:08:39;;;;;;;0.10;0.10;;;16.70;74.00;;;;;;5053069;28;20032;-92
2021/06/01 03:11:06;;;;;;;0.93;0.90;;;16.70;74.80;;;;;;5052586;28;20389;-92
2021/06/01 03:13:32;;;;;;;0.55;0.22;;;16.80;73.90;;;;;;5052910;28;20033;-94
2021/06/01 03:15:58;;;;;;;0.20;0.20;;;16.90;73.60;;;;;;5052666;28;20081;-91
2021/06/01 03:18:24;;;;;;;0.40;0.40;;;16.80;73.70;;;;;;5051346;28;20032;-92
2021/06/01 03:20:50;;;;;;;0.20;0.20;;;16.90;73.60;;;;;;5051452;28;20025;-92
2021/06/01 03:23:17;;;;;;;0.20;0.20;;;16.80;73.80;;;;;;5068646;28;20368;-91
2021/06/01 03:25:43;;;;;;;0.10;0.10;;;16.70;74.40;;;;;;5070892;28;20399;-91
2021/06/01 03:28:09;;;;;;;0.10;0.10;;;16.90;74.10;;;;;;5073275;28;20043;-92
2021/06/01 03:30:35;;;;;;;0.13;0.13;;;16.80;73.80;;;;;;5072242;28;20017;-94
2021/06/01 03:33:02;;;;;;;0.10;0.10;;;16.90;73.80;;;;;;5072013;28;20032;-93
2021/06/01 03:35:28;;;;;;;0.30;0.30;;;16.80;75.40;;;;;;5072473;28;20029;-93
2021/06/01 03:37:54;;;;;;;0.10;0.10;;;16.80;74.30;;;;;;5072345;28;20516;-92
2021/06/01 03:40:21;;;;;;;0.13;0.13;;;16.90;74.40;;;;;;5072001;28;20025;-92
2021/06/01 03:42:47;;;;;;;0.25;0.25;;;16.80;74.70;;;;;;5072107;28;20039;-93
2021/06/01 03:45:13;;;;;;;0.00;0.00;;;16.70;74.50;;;;;;5072067;28;20419;-93
2021/06/01 03:47:40;;;;;;;0.20;0.20;;;16.60;74.80;;;;;;5072257;28;20120;-93
2021/06/01 03:50:07;;;;;;;1.17;0.90;;;16.80;74.40;;;;;;5072329;28;20028;-92
2021/06/01 03:52:47;;;;;;;0.00;0.00;;;16.80;75.20;;;;;;5062135;28;20017;-92
2021/06/01 03:55:16;;;;;;;0.10;0.10;;;16.60;75.20;;;;;;5066405;28;20136;-93
2021/06/01 03:57:45;;;;;;;0.20;0.20;;;16.40;76.80;;;;;;5072432;28;20024;-91
2021/06/01 04:00:12;;;;;;;0.20;0.20;;;16.50;76.40;;;;;;5070599;28;20485;-91
2021/06/01 04:02:39;;;;;;;0.10;0.10;;;16.50;78.40;;;;;;5068793;28;20184;-91
2021/06/01 04:05:16;;;;;;;0.20;0.20;;;16.40;76.70;;;;;;5061887;28;20025;-93
2021/06/01 04:07:57;;;;;;;0.03;0.03;;;16.30;77.00;;;;;;5052272;28;20025;-92
2021/06/01 04:10:24;;;;;;;0.00;0.00;;;16.30;77.50;;;;;;5059337;28;20535;-92
2021/06/01 04:12:50;;;;;;;0.10;0.10;;;16.20;77.90;;;;;;5068017;28;20020;-93
2021/06/01 04:15:16;;;;;;;0.08;0.08;;;16.10;90.80;;;;;;5071609;28;20040;-92
2021/06/01 04:17:42;;;;;;;0.10;0.10;;;16.00;78.90;;;;;;5070990;28;20024;-92
2021/06/01 04:20:08;;;;;;;0.10;0.10;;;16.00;78.90;;;;;;5068188;28;20021;-92
2021/06/01 04:22:34;;;;;;;0.25;0.22;;;16.10;79.30;;;;;;5060579;28;20434;-92
2021/06/01 04:25:00;;;;;;;0.10;0.10;;;16.40;79.80;;;;;;5051148;28;20108;-92
2021/06/01 04:27:26;;;;;;;2.90;0.80;;;17.00;78.70;;;;;;5061593;28;20032;-92
2021/06/01 04:29:52;;;;;;;0.10;0.10;;;17.30;77.80;;;;;;5071926;28;20485;-92
2021/06/01 04:32:19;;;;;;;0.20;0.20;;;17.40;76.60;;;;;;5075654;28;20052;-91
2021/06/01 04:34:46;;;;;;;0.32;0.17;;;17.50;76.00;;;;;;5075484;28;20390;-91
2021/06/01 04:37:11;;;;;;;;;;;17.40;76.30;;;;;;5075977;28;20064;-93
2021/06/01 04:39:37;;;;;;;0.00;0.00;;;17.60;75.20;;;;;;5075445;28;20369;-93
2021/06/01 04:42:03;;;;;;;0.23;0.23;;;17.30;76.00;;;;;;5073807;28;20020;-90
2021/06/01 04:44:29;;;;;;;0.10;0.10;;;17.20;75.60;;;;;;5057268;28;20021;-89
2021/06/01 04:46:55;;;;;;;7.00;2.03;;;17.50;76.00;;;;;;5066563;28;20051;-95
2021/06/01 04:49:20;;;;;;;0.10;0.10;;;17.60;74.60;;;;;;5067138;28;20021;-94
2021/06/01 04:51:54;;;;;;;0.10;0.10;;;17.30;75.30;;;;;;5055498;28;20025;-92
2021/06/01 04:54:23;;;;;;;0.10;0.10;;;17.30;76.20;;;;;;5053299;28;20086;-94
2021/06/01 04:56:48;;;;;;;0.30;0.30;;;17.40;75.90;;;;;;5054538;28;20031;-94
2021/06/01 04:59:14;;;;;;;0.10;0.10;;;17.50;75.90;;;;;;5054602;28;20405;-93
2021/06/01 05:01:40;;;;;;;0.10;0.10;;;17.60;75.20;;;;;;5056606;28;20497;-93
2021/06/01 05:04:06;;;;;;;0.10;0.10;;;17.80;74.70;;;;;;5056012;28;20040;-92
2021/06/01 05:06:33;;;;;;;0.20;0.20;;;17.90;73.80;;;;;;5053863;28;20057;-90
2021/06/01 05:08:58;;;;;;;;;;;17.60;73.80;;;;;;5056493;28;20025;-87
2021/06/01 05:11:24;;;;;;;0.73;0.60;;;17.50;74.40;;;;;;5059365;28;19912;-90
2021/06/01 05:13:50;;;;;;;0.20;0.20;;;17.10;75.40;;;;;;5051339;28;20280;-90
2021/06/01 05:16:16;;;;;;;0.00;0.00;;;17.10;76.60;;;;;;5070745;28;20520;-89
2021/06/01 05:18:42;;;;;;;0.10;0.10;;;17.60;75.00;;;;;;5054251;28;20124;-93
2021/06/01 05:21:08;;;;;;;0.10;0.10;;;18.50;73.20;;;;;;5057808;28;20068;-95
2021/06/01 05:23:34;;;;;;;0.40;0.40;;;18.60;71.90;;;;;;5064437;28;20033;-93
2021/06/01 05:26:00;;;;;;;;;;;18.50;72.40;;;;;;5055960;28;20078;-93
2021/06/01 05:28:26;;;;;;;0.00;0.00;;;19.40;71.30;;;;;;5062783;28;19917;-92
2021/06/01 05:33:35;;;;;;;0.10;0.10;;;18.90;67.90;;;;;;5054611;28;20117;-92
2021/06/01 05:36:01;;;;;;;0.00;0.00;;;18.90;69.60;;;;;;5066584;28;20112;-92
2021/06/01 05:38:30;;;;;;;0.30;0.30;;;18.80;69.70;;;;;;5063472;28;20111;-92
2021/06/01 05:40:56;;;;;;;0.13;0.13;;;18.60;70.00;;;;;;5070532;28;20520;-91
2021/06/01 05:43:22;;;;;;;0.00;0.00;;;18.60;69.50;;;;;;5062923;28;20098;-95
2021/06/01 05:45:49;;;;;;;0.15;0.15;;;18.50;69.80;;;;;;5074432;28;20021;-92
2021/06/01 05:48:15;;;;;;;0.10;0.10;;;18.60;70.70;;;;;;5072622;28;20095;-93
2021/06/01 05:50:41;;;;;;;0.10;0.10;;;18.70;69.40;;;;;;5073189;28;20025;-93
2021/06/01 05:53:08;;;;;;;0.30;0.30;;;18.90;69.10;;;;;;5073076;28;20036;-94
2021/06/01 05:55:35;;;;;;;0.20;0.20;;;19.80;67.90;;;;;;5074263;28;20043;-94
2021/06/01 05:58:02;;;;;;;0.20;0.20;;;20.60;65.40;;;;;;5074416;28;20032;-94
2021/06/01 06:00:29;;;;;;;0.00;0.00;;;20.50;62.20;;;;;;5074152;28;20123;-94
2021/06/01 06:02:55;;;;;;;0.22;0.22;;;20.10;64.60;;;;;;5074171;28;20025;-93
2021/06/01 06:05:21;;;;;;;0.03;0.03;;;21.70;63.40;;;;;;5073613;28;20121;-94
2021/06/01 06:07:47;;;;;;;0.35;0.17;;;20.80;58.80;;;;;;5073916;28;20074;-93
2021/06/01 06:10:13;;;;;;;0.00;0.00;;;20.30;65.40;;;;;;5073842;28;20025;-94
2021/06/01 06:12:40;;;;;;;0.10;0.10;;;21.50;63.10;;;;;;5071676;28;20029;-93
2021/06/01 06:15:12;;;;;;;0.00;0.00;;;23.00;59.40;;;;;;5054141;28;20029;-95
2021/06/01 06:17:39;;;;;;;0.00;0.00;;;21.00;59.40;;;;;;5053895;28;20082;-95
2021/06/01 06:20:06;;;;;;;0.00;0.00;;;21.80;61.40;;;;;;5053939;28;20056;-95
2021/06/01 06:22:32;;;;;;;0.70;0.50;;;22.90;57.60;;;;;;5053200;28;20116;-93
2021/06/01 06:24:58;;;;;;;0.10;0.10;;;22.00;54.20;;;;;;5054717;28;20454;-94
2021/06/01 06:27:24;;;;;;;0.13;0.13;;;22.00;55.50;;;;;;5054701;28;20075;-94
2021/06/01 06:29:50;;;;;;;1.55;0.60;;;24.10;51.50;;;;;;5056445;28;20021;-94
2021/06/01 06:32:16;;;;;;;0.30;0.15;;;26.40;46.10;;;;;;5054178;28;20078;-95
2021/06/01 06:34:43;;;;;;;0.00;0.00;;;25.50;42.50;;;;;;5064645;28;20033;-94
2021/06/01 06:37:09;;;;;;;0.20;0.20;;;26.30;43.70;;;;;;5074126;28;20031;-93
2021/06/01 06:39:35;;;;;;;0.00;0.00;;;24.20;44.20;;;;;;5073124;28;20028;-92
2021/06/01 06:42:02;;;;;;;0.08;0.05;;;23.80;49.50;;;;;;5072248;28;20052;-93
2021/06/01 06:44:28;;;;;;;0.08;0.08;;;24.70;45.90;;;;;;5072028;28;20060;-92
2021/06/01 06:47:17;;;;;;;1.38;0.30;;;24.90;46.60;;;;;;5072150;28;20024;-94
2021/06/01 06:49:43;;;;;;;0.15;0.15;;;24.80;43.10;;;;;;5071949;28;20036;-93
2021/06/01 06:52:10;;;;;;;;;;;23.00;45.90;;;;;;5071888;28;20547;-92
2021/06/01 06:54:36;;;;;;;0.00;0.00;;;21.70;49.60;;;;;;5071435;28;19962;-94
2021/06/01 06:57:03;;;;;;;1.85;0.80;;;21.30;50.90;;;;;;5071789;28;20056;-92
2021/06/01 06:59:28;;;;;;;0.13;0.13;;;22.40;51.00;;;;;;5071735;28;20056;-93
2021/06/01 07:01:54;;;;;;;0.00;0.00;;;24.50;46.00;;;;;;5071406;28;20021;-92
2021/06/01 07:04:20;;;;;;;0.20;0.05;;;24.90;43.80;;;;;;5071555;28;20029;-92
2021/06/01 07:06:48;;;;;;;0.00;0.00;;;25.10;42.40;;;;;;5073045;28;20028;-93
2021/06/01 07:09:15;;;;;;;0.00;0.00;;;25.70;41.20;;;;;;5071906;28;20024;-92
2021/06/01 07:11:41;;;;;;;0.00;0.00;;;25.70;41.00;;;;;;5071786;28;20024;-92
2021/06/01 07:14:25;;;;;;;0.10;0.10;;;25.10;44.90;;;;;;5073343;28;20079;-91
2021/06/01 07:16:51;;;;;;;0.00;0.00;;;25.70;41.90;;;;;;5073139;28;20029;-93
2021/06/01 07:19:17;;;;;;;0.00;0.00;;;26.80;37.80;;;;;;5072282;28;20037;-92
2021/06/01 07:21:43;;;;;;;0.10;0.10;;;26.60;37.40;;;;;;5072093;28;20021;-93
2021/06/01 07:24:10;;;;;;;;;;;26.50;36.00;;;;;;5072356;28;20028;-93
2021/06/01 07:26:36;;;;;;;0.10;0.10;;;27.60;34.20;;;;;;5072564;28;19904;-94
2021/06/01 07:29:03;;;;;;;0.30;0.30;;;27.00;34.80;;;;;;5072416;28;20359;-94
2021/06/01 07:31:29;;;;;;;0.10;0.05;;;27.80;42.20;;;;;;5072396;28;20028;-93
2021/06/01 07:33:55;;;;;;;;;;;27.80;29.30;;;;;;5072471;28;20385;-94
2021/06/01 07:36:21;;;;;;;0.00;0.00;;;27.70;27.80;;;;;;5072318;28;19994;-93
2021/06/01 07:38:46;;;;;;;0.10;0.10;;;25.80;33.20;;;;;;5073558;28;20099;-94
2021/06/01 07:41:12;;;;;;;0.10;0.10;;;25.20;34.70;;;;;;5072495;28;20440;-93
2021/06/01 07:43:38;;;;;;;;;;;26.60;33.40;;;;;;5072807;28;20423;-94
2021/06/01 07:46:05;;;;;;;0.22;0.22;;;27.50;30.20;;;;;;5071970;28;19904;-93
2021/06/01 07:48:35;;;;;;;0.08;0.08;;;29.00;31.80;;;;;;5072090;28;20024;-93
2021/06/01 07:51:01;;;;;;;0.20;0.00;;;28.20;32.00;;;;;;5071983;28;20595;-94
2021/06/01 07:53:26;;;;;;;;;;;28.90;27.50;;;;;;5072277;28;20057;-93
2021/06/01 07:55:53;;;;;;;6.32;0.30;;;29.10;26.50;;;;;;5071978;28;19927;-93
2021/06/01 07:58:19;;;;;;;0.00;0.00;;;28.20;29.00;;;;;;5072019;28;20025;-92
2021/06/01 08:00:46;;;;;;;0.55;0.28;;;28.50;28.10;;;;;;5072266;28;20358;-93
2021/06/01 08:03:15;;;;;;;0.13;0.10;;;27.40;28.70;;;;;;5071863;28;20546;-94
2021/06/01 08:05:41;;;;;;;0.00;0.00;;;27.70;28.90;;;;;;5074478;28;20024;-94
2021/06/01 08:08:07;;;;;;;0.00;0.00;;;28.90;25.90;;;;;;5076163;28;20035;-94
2021/06/01 08:10:32;;;;;;;0.10;0.10;;;28.90;25.20;;;;;;5076168;28;20048;-95
2021/06/01 08:12:58;;;;;;;0.00;0.00;;;30.40;22.40;;;;;;5075881;28;20029;-95
2021/06/01 08:15:25;;;;;;;0.00;0.00;;;28.80;23.70;;;;;;5075982;28;20028;-95
2021/06/01 08:17:54;;;;;;;0.00;0.00;;;29.50;23.70;;;;;;5076164;28;20031;-93
2021/06/01 08:20:31;;;;;;;0.22;0.22;;;32.20;19.70;;;;;;5075687;28;20050;-93
2021/06/01 08:22:58;;;;;;;0.10;0.00;;;30.90;19.20;;;;;;5075342;28;20036;-93
2021/06/01 08:25:24;;;;;;;0.00;0.00;;;34.40;14.20;;;;;;5075503;28;20017;-93
2021/06/01 08:27:49;;;;;;;0.98;0.25;;;33.50;12.40;;;;;;5075269;28;20031;-93
2021/06/01 08:30:16;;;;;;;0.00;0.00;;;31.00;16.90;;;;;;5075329;28;20385;-94
2021/06/01 08:32:42;;;;;;;0.17;0.17;;;30.10;18.80;;;;;;5075280;28;20128;-93
2021/06/01 08:35:08;;;;;;;0.00;0.00;;;31.50;19.80;;;;;;5075265;28;20052;-93
2021/06/01 08:37:34;;;;;;;0.00;0.00;;;29.70;18.20;;;;;;5075160;28;20090;-95
2021/06/01 08:40:00;;;;;;;0.10;0.10;;;30.90;19.40;;;;;;5075447;28;20044;-94
2021/06/01 08:42:26;;;;;;;4.20;1.08;;;31.20;17.20;;;;;;5075033;28;20025;-95
2021/06/01 08:44:51;;;;;;;0.10;0.10;;;30.70;16.50;;;;;;5074980;28;20435;-93
2021/06/01 08:47:19;;;;;;;0.00;0.00;;;33.00;13.50;;;;;;5075204;28;20029;-95
2021/06/01 08:49:48;;;;;;;0.38;0.10;;;34.10;8.50;;;;;;5076593;28;20381;-94
2021/06/01 08:52:15;;;;;;;0.05;0.05;;;33.10;12.20;;;;;;5075298;28;20482;-94
2021/06/01 08:54:43;;;;;;;0.00;0.00;;;32.70;12.60;;;;;;5074672;28;20045;-94
2021/06/01 08:57:10;;;;;;;0.82;0.52;;;35.50;8.70;;;;;;5075144;28;20512;-94
2021/06/01 08:59:36;;;;;;;0.45;0.35;;;33.20;8.90;;;;;;5074945;28;20021;-93
2021/06/01 09:02:03;;;;;;;0.20;0.17;;;33.90;10.60;;;;;;5074835;28;20485;-93
2021/06/01 09:05:07;;;;;;;1.35;0.55;;;33.40;6.80;;;;;;5074762;28;20105;-93
2021/06/01 09:07:53;;;;;;;0.05;0.05;;;33.20;6.90;;;;;;5057100;28;20024;-93
2021/06/01 09:21:35;;;;;;;0.00;0.00;;;34.80;4.80;;;;;;5074059;28;20066;-93
2021/06/01 09:24:03;;;;;;;0.08;0.00;;;36.10;3.50;;;;;;5073419;28;20051;-93
2021/06/01 09:26:55;;;;;;;0.95;0.85;;;36.60;2.20;;;;;;5056397;28;20048;-93
2021/06/01 09:29:22;;;;;;;0.20;0.20;;;33.00;4.60;;;;;;5056639;28;20060;-93
2021/06/01 09:32:14;;;;;;;0.08;0.08;;;36.30;2.10;;;;;;5056538;28;20374;-93
2021/06/01 09:34:52;;;;;;;0.20;0.20;;;34.80;1.00;;;;;;5056441;28;20037;-92
2021/06/01 09:37:22;;;;;;;0.60;0.22;;;33.40;3.90;;;;;;5056169;28;20553;-93
2021/06/01 09:40:06;;;;;;;0.03;0.03;;;32.30;6.10;;;;;;5073175;28;20079;-92
2021/06/01 09:42:33;;;;;;;0.43;0.15;;;32.50;3.40;;;;;;5073232;28;20040;-93
2021/06/01 09:45:11;;;;;;;0.10;0.10;;;32.20;6.30;;;;;;5073295;28;20037;-93
2021/06/01 09:47:49;;;;;;;0.00;0.00;;;33.20;2.10;;;;;;5073390;28;20054;-93
2021/06/01 09:52:57;;;;;;;0.40;0.30;;;34.00;1.50;;;;;;5074463;28;20108;-93
2021/06/01 09:55:31;;;;;;;0.43;0.25;;;35.20;1.00;;;;;;5073291;28;20040;-93
2021/06/01 09:57:58;;;;;;;1.75;0.25;;;35.30;2.90;;;;;;5073464;28;20052;-93
2021/06/01 10:00:26;;;;;;;0.00;0.00;;;36.90;1.00;;;;;;5074434;28;20100;-94
2021/06/01 10:02:57;;;;;;;0.00;0.00;;;30.60;7.30;;;;;;5073614;28;20070;-93
2021/06/01 10:05:26;;;;;;;0.03;0.00;;;30.40;9.90;;;;;;5073412;28;20021;-94
2021/06/01 10:07:54;;;;;;;0.05;0.05;;;34.00;4.00;;;;;;5073415;28;20020;-93
2021/06/01 10:10:25;;;;;;;0.30;0.00;;;31.60;6.00;;;;;;5073055;28;20025;-93
2021/06/01 10:12:54;;;;;;;0.10;0.10;;;34.50;2.20;;;;;;5072650;28;20032;-93
2021/06/01 10:15:22;;;;;;;0.00;0.00;;;30.00;6.70;;;;;;5072463;28;20044;-92
2021/06/01 10:17:49;;;;;;;0.22;0.13;;;30.30;9.80;;;;;;5072743;28;20017;-92
2021/06/01 10:20:15;;;;;;;2.25;0.82;;;29.60;11.80;;;;;;5073615;28;20021;-92
2021/06/01 10:22:41;;;;;;;;;;;29.90;10.80;;;;;;5072955;28;20474;-92
2021/06/01 10:25:08;;;;;;;0.17;0.10;;;29.30;10.80;;;;;;5073550;28;19910;-93
2021/06/01 10:27:35;;;;;;;0.00;0.00;;;27.80;14.70;;;;;;5071578;28;20119;-92
2021/06/01 10:30:01;;;;;;;6.50;0.20;;;27.40;14.40;;;;;;5074127;28;20031;-91
2021/06/01 10:32:29;;;;;;;0.10;0.10;;;27.50;14.50;;;;;;5073013;28;20377;-92
2021/06/01 10:34:57;;;;;;;0.52;0.22;;;28.10;15.40;;;;;;5072789;28;20036;-92
2021/06/01 10:43:26;;;;;;;0.00;0.00;;;26.40;18.70;;;;;;5074434;28;20086;-93
2021/06/01 10:51:59;;;;;;;0.15;0.15;;;26.10;20.00;;;;;;5073629;28;20027;-91
2021/06/01 10:54:44;;;;;;;0.00;0.00;;;26.50;20.10;;;;;;5072075;28;20059;-92
2021/06/01 10:57:13;;;;;;;0.10;0.10;;;27.30;19.10;;;;;;5072428;28;20025;-92
2021/06/01 11:02:15;;;;;;;0.00;0.00;;;26.90;18.90;;;;;;5073717;28;20036;-92
2021/06/01 11:05:04;;;;;;;0.10;0.10;;;27.00;29.20;;;;;;5072462;28;20029;-93
2021/06/01 11:08:11;;;;;;;0.10;0.10;;;27.10;19.60;;;;;;5072262;28;20082;-93
2021/06/01 11:10:44;;;;;;;0.00;0.00;;;27.50;18.40;;;;;;5073452;28;20107;-92
2021/06/01 11:13:31;;;;;;;0.05;0.05;;;26.20;20.80;;;;;;5072219;28;20032;-93
2021/06/01 11:15:58;;;;;;;0.32;0.30;;;26.50;20.10;;;;;;5071877;28;20485;-92
2021/06/01 11:18:40;;;;;;;0.22;0.22;;;26.60;21.40;;;;;;5072013;28;20428;-92
2021/06/01 11:21:31;;;;;;;1.27;0.22;;;26.70;20.30;;;;;;5071920;28;20066;-92
2021/06/01 11:33:08;;;;;;;0.63;0.55;;;25.10;25.70;;;;;;5071439;28;20075;-91
2021/06/01 11:35:41;;;;;;;0.10;0.10;;;24.10;27.80;;;;;;5054315;28;20103;-92
2021/06/01 11:38:17;;;;;;;0.00;0.00;;;24.10;27.50;;;;;;5053954;28;20032;-92
2021/06/01 11:43:33;;;;;;;0.47;0.47;;;24.50;27.30;;;;;;5071168;28;20527;-93
2021/06/01 11:46:23;;;;;;;0.38;0.38;;;24.90;26.90;;;;;;5053858;28;20028;-92
2021/06/01 11:51:25;;;;;;;0.28;0.22;;;24.50;28.20;;;;;;5070259;28;20223;-92
2021/06/01 11:54:07;;;;;;;0.93;0.77;;;24.90;27.80;;;;;;5069513;28;20131;-92
2021/06/01 11:57:11;;;;;;;0.20;0.13;;;24.70;27.70;;;;;;5069869;28;20017;-91
2021/06/01 12:02:40;;;;;;;0.15;0.15;;;25.50;27.30;;;;;;5070207;28;20768;-91
2021/06/01 12:19:08;;;;;;;0.28;0.28;;;25.00;28.00;;;;;;5051353;28;20029;-91
2021/06/01 12:21:39;;;;;;;0.75;0.28;;;25.60;27.60;;;;;;5050264;28;20449;-92
2021/06/01 12:24:08;;;;;;;0.28;0.28;;;26.50;26.00;;;;;;5051179;28;20032;-93
2021/06/01 12:32:27;;;;;;;0.00;0.00;;;24.70;28.70;;;;;;5051979;28;20608;-93
2021/06/01 13:47:53;;;;;;;;;;;20.90;99.90;;;;;;5055229;28;20035;-93
2021/06/01 13:50:27;;;;;;;0.60;0.60;;;20.60;99.90;;;;;;5054515;28;19912;-91
2021/06/01 13:55:05;;;;;;;0.20;0.20;;;21.30;69.80;;;;;;5053038;28;20433;-91
2021/06/01 13:55:51;;;;;;;0.40;0.40;;;20.90;1.00;;;;;;5054616;28;20029;-93
2021/06/01 13:58:36;;;;;;;0.85;0.68;;;18.90;99.90;;;;;;5055011;28;20018;-93
2021/06/01 14:31:52;;;;;;;0.30;0.30;;;21.00;99.90;;;;;;5054153;28;20051;-92
2021/06/01 16:11:30;;;;;;;0.00;0.00;;;17.50;99.90;;;;;;5059588;28;20040;-90
2021/06/01 16:14:13;;;;;;;0.43;0.43;;;17.30;1.00;;;;;;5060499;28;20029;-90
2021/06/01 17:03:22;;;;;;;0.22;0.22;;;18.40;99.90;;;;;;5053765;28;20030;-89
2021/06/01 17:13:34;;;;;;;0.93;0.28;;;18.40;99.90;;;;;;5059283;28;20036;-89
2021/06/01 17:16:00;;;;;;;1.42;1.08;;;18.30;99.90;;;;;;5067118;28;20024;-89
2021/06/01 17:35:22;;;;;;;0.10;0.10;;;18.20;99.90;;;;;;5076891;28;20040;-87
2021/06/01 17:37:49;;;;;;;1.77;1.00;;;18.30;99.90;;;;;;5071605;28;20119;-87
2021/06/01 17:40:18;;;;;;;0.10;0.10;;;18.30;99.90;;;;;;5070877;28;20029;-91
2021/06/01 17:42:53;;;;;;;0.15;0.15;;;18.40;99.90;;;;;;5072180;28;20021;-90
2021/06/01 17:45:24;;;;;;;0.00;0.00;;;18.50;99.90;;;;;;5089235;28;20032;-89
2021/06/01 17:47:59;;;;;;;0.10;0.10;;;18.40;99.90;;;;;;5078389;28;20033;-90
2021/06/01 17:50:26;;;;;;;0.03;0.03;;;18.40;99.90;;;;;;5069471;28;20116;-89
2021/06/01 17:52:59;;;;;;;0.28;0.28;;;18.60;99.90;;;;;;5062633;28;20508;-88
2021/06/01 17:55:27;;;;;;;0.13;0.13;;;18.50;99.90;;;;;;5056025;28;20040;-88
2021/06/01 17:57:55;;;;;;;0.43;0.43;;;18.50;99.90;;;;;;5057186;28;20041;-89
2021/06/01 18:00:21;;;;;;;0.68;0.65;;;18.60;99.90;;;;;;5049780;28;20021;-89
2021/06/01 18:02:51;;;;;;;0.10;0.10;;;18.50;99.90;;;;;;5056544;28;20024;-89
2021/06/01 18:05:23;;;;;;;0.55;0.35;;;18.60;99.90;;;;;;5057729;28;20573;-87
2021/06/01 18:08:00;;;;;;;0.05;0.05;;;18.60;99.90;;;;;;5051538;28;20037;-88
2021/06/01 19:24:45;;;;;;;0.20;0.20;;;16.80;99.90;;;;;;5063764;28;20037;-87
2021/06/01 19:52:09;;;;;;;0.40;0.40;;;17.80;99.90;;;;;;5047847;28;20058;-87
2021/06/01 19:54:35;;;;;;;0.57;0.55;;;17.80;99.90;;;;;;5054770;28;20041;-87
2021/06/01 19:57:01;;;;;;;0.40;0.40;;;17.80;99.90;;;;;;5063448;28;20565;-87
2021/06/01 19:59:28;;;;;;;0.47;0.20;;;17.80;99.90;;;;;;5060776;28;20297;-87
2021/06/01 20:01:55;;;;;;;0.85;0.85;;;17.80;99.90;;;;;;5060650;28;20027;-87
2021/06/01 20:04:21;;;;;;;0.00;0.00;;;17.90;99.90;;;;;;5067955;28;20032;-86
2021/06/01 20:06:47;;;;;;;;;;;17.90;99.90;;;;;;5057725;28;20050;-86
2021/06/01 20:09:17;;;;;;;0.10;0.10;;;17.90;99.90;;;;;;5059318;28;20007;-86
2021/06/01 20:11:44;;;;;;;0.20;0.20;;;18.00;99.90;;;;;;5059206;28;20068;-86
2021/06/01 20:14:10;;;;;;;;;;;18.00;99.90;;;;;;5062074;28;20045;-85
2021/06/01 20:16:42;;;;;;;0.17;0.17;;;18.00;99.90;;;;;;5061042;28;19975;-85
2021/06/01 20:19:15;;;;;;;0.30;0.30;;;17.90;99.90;;;;;;5054219;28;20523;-86
2021/06/01 20:21:53;;;;;;;0.10;0.10;;;17.90;99.90;;;;;;5066926;28;20086;-85
2021/06/01 20:24:21;;;;;;;0.10;0.10;;;17.90;99.90;;;;;;5060652;28;20135;-85
2021/06/01 20:26:49;;;;;;;0.10;0.10;;;17.90;99.90;;;;;;5063075;28;20033;-85